createdAt,value
2019-05-19T00:00:01.594Z,2.70
2019-05-19T00:02:27.815Z,1.20
2019-05-19T00:04:54.067Z,0.97
2019-05-19T00:07:20.299Z,0.90
2019-05-19T00:09:46.537Z,1.00
2019-05-19T00:12:12.770Z,0.80
2019-05-19T00:14:39.007Z,0.90
2019-05-19T00:17:05.237Z,0.83
2019-05-19T00:19:31.486Z,1.10
2019-05-19T00:21:57.720Z,0.80
2019-05-19T00:24:23.960Z,0.87
2019-05-19T00:26:50.186Z,0.67
2019-05-19T00:29:16.423Z,1.10
2019-05-19T00:31:42.654Z,0.80
2019-05-19T00:34:08.933Z,1.13
2019-05-19T00:36:35.483Z,1.13
2019-05-19T00:39:01.721Z,0.83
2019-05-19T00:41:27.951Z,0.70
2019-05-19T00:43:54.195Z,0.97
2019-05-19T00:46:20.415Z,1.03
2019-05-19T00:48:46.779Z,1.10
2019-05-19T00:51:13.017Z,1.10
2019-05-19T00:53:39.255Z,0.90
2019-05-19T00:56:05.504Z,1.30
2019-05-19T00:58:33.237Z,1.00
2019-05-19T01:00:59.674Z,1.17
2019-05-19T01:03:25.902Z,1.20
2019-05-19T01:05:52.160Z,1.03
2019-05-19T01:08:18.405Z,1.10
2019-05-19T01:10:44.648Z,0.90
2019-05-19T01:13:10.881Z,0.83
2019-05-19T01:15:37.130Z,0.60
2019-05-19T01:18:03.362Z,1.00
2019-05-19T01:20:30.003Z,0.80
2019-05-19T01:22:56.237Z,0.83
2019-05-19T01:25:22.471Z,0.90
2019-05-19T01:27:48.722Z,0.90
2019-05-19T01:30:15.353Z,1.07
2019-05-19T01:32:41.592Z,1.10
2019-05-19T01:35:08.059Z,1.10
2019-05-19T01:37:34.339Z,1.30
2019-05-19T01:40:00.628Z,0.90
2019-05-19T01:42:26.936Z,1.07
2019-05-19T01:44:53.175Z,1.10
2019-05-19T01:47:19.400Z,0.97
2019-05-19T01:49:45.652Z,0.80
2019-05-19T01:52:11.887Z,0.90
2019-05-19T01:54:38.124Z,1.17
2019-05-19T01:57:04.373Z,1.10
2019-05-19T01:59:30.604Z,1.10
2019-05-19T02:01:56.848Z,1.10
2019-05-19T02:04:23.075Z,0.97
2019-05-19T02:06:49.306Z,1.40
2019-05-19T02:09:15.538Z,0.97
2019-05-19T02:11:41.799Z,1.00
2019-05-19T02:14:08.006Z,1.33
2019-05-19T02:16:34.253Z,1.07
2019-05-19T02:19:00.471Z,0.90
2019-05-19T02:21:26.718Z,1.30
2019-05-19T02:23:52.951Z,1.07
2019-05-19T02:26:19.186Z,1.00
2019-05-19T02:28:45.416Z,1.07
2019-05-19T02:31:11.645Z,1.10
2019-05-19T02:33:37.915Z,1.30
2019-05-19T02:36:04.129Z,1.20
2019-05-19T02:38:30.377Z,0.90
2019-05-19T02:40:59.213Z,1.10
2019-05-19T02:43:26.151Z,1.10
2019-05-19T02:45:56.002Z,0.90
2019-05-19T02:48:22.941Z,1.00
2019-05-19T02:50:52.746Z,1.10
2019-05-19T02:53:18.714Z,1.00
2019-05-19T02:55:45.045Z,1.20
2019-05-19T02:58:11.788Z,1.03
2019-05-19T03:00:39.311Z,1.33
2019-05-19T03:03:06.361Z,1.20
2019-05-19T03:05:32.591Z,1.37
2019-05-19T03:07:58.903Z,1.13
2019-05-19T03:10:25.173Z,1.33
2019-05-19T03:12:51.397Z,1.07
2019-05-19T03:15:17.646Z,1.30
2019-05-19T03:17:43.873Z,1.37
2019-05-19T03:20:10.128Z,1.10
2019-05-19T03:22:36.349Z,1.43
2019-05-19T03:25:05.001Z,1.23
2019-05-19T03:27:31.221Z,1.30
2019-05-19T03:29:59.266Z,1.47
2019-05-19T03:32:39.100Z,1.10
2019-05-19T03:35:05.407Z,1.33
2019-05-19T03:37:31.684Z,1.33
2019-05-19T03:39:57.930Z,1.00
2019-05-19T03:42:24.159Z,1.00
2019-05-19T03:44:50.394Z,0.90
2019-05-19T03:47:16.623Z,1.17
2019-05-19T03:49:42.860Z,1.40
2019-05-19T03:52:09.083Z,1.20
2019-05-19T03:54:35.319Z,1.10
2019-05-19T03:57:01.549Z,1.30
2019-05-19T03:59:27.815Z,1.23
2019-05-19T04:01:54.155Z,1.73
2019-05-19T04:04:20.382Z,1.20
2019-05-19T04:06:46.633Z,1.40
2019-05-19T04:09:12.865Z,1.10
2019-05-19T04:11:39.097Z,1.57
2019-05-19T04:14:05.327Z,1.00
2019-05-19T04:16:32.989Z,1.20
2019-05-19T04:18:59.213Z,0.97
2019-05-19T04:21:25.458Z,1.20
2019-05-19T04:23:51.741Z,0.90
2019-05-19T04:26:18.022Z,1.13
2019-05-19T04:28:44.251Z,1.00
2019-05-19T04:31:11.299Z,0.93
2019-05-19T04:33:37.520Z,1.00
2019-05-19T04:36:03.789Z,0.80
2019-05-19T04:38:30.017Z,0.80
2019-05-19T04:40:56.254Z,0.70
2019-05-19T04:43:22.499Z,1.00
2019-05-19T04:45:48.737Z,1.07
2019-05-19T04:48:14.964Z,1.20
2019-05-19T04:50:41.190Z,0.93
2019-05-19T04:53:07.445Z,0.83
2019-05-19T04:55:33.670Z,1.10
2019-05-19T04:57:59.913Z,0.90
2019-05-19T05:00:26.136Z,0.80
2019-05-19T05:02:52.377Z,1.10
2019-05-19T05:05:18.601Z,0.80
2019-05-19T05:07:44.856Z,1.03
2019-05-19T05:10:11.286Z,0.90
2019-05-19T05:12:37.530Z,0.90
2019-05-19T05:15:05.084Z,0.90
2019-05-19T05:17:31.336Z,0.70
2019-05-19T05:19:57.561Z,0.90
2019-05-19T05:22:23.824Z,0.90
2019-05-19T05:24:50.051Z,0.80
2019-05-19T05:27:16.294Z,1.00
2019-05-19T05:29:42.600Z,0.80
2019-05-19T05:32:08.881Z,0.90
2019-05-19T05:34:35.128Z,0.70
2019-05-19T05:37:01.375Z,1.00
2019-05-19T05:39:27.613Z,0.83
2019-05-19T05:41:53.843Z,0.70
2019-05-19T05:44:20.094Z,0.80
2019-05-19T05:46:46.317Z,0.90
2019-05-19T05:49:12.561Z,0.80
2019-05-19T05:51:38.797Z,0.80
2019-05-19T05:54:05.054Z,0.60
2019-05-19T05:56:31.310Z,0.80
2019-05-19T05:58:57.561Z,0.80
2019-05-19T06:01:23.792Z,0.85
2019-05-19T06:03:50.037Z,1.00
2019-05-19T06:06:16.273Z,0.70
2019-05-19T06:08:42.613Z,0.98
2019-05-19T06:11:08.841Z,0.82
2019-05-19T06:13:35.099Z,1.30
2019-05-19T06:16:01.336Z,0.78
2019-05-19T06:18:27.586Z,0.90
2019-05-19T06:20:53.818Z,0.85
2019-05-19T06:23:20.107Z,0.90
2019-05-19T06:25:46.370Z,0.82
2019-05-19T06:28:12.579Z,0.72
2019-05-19T06:30:38.831Z,0.80
2019-05-19T06:33:05.160Z,0.90
2019-05-19T06:35:31.453Z,1.00
2019-05-19T06:37:57.644Z,0.88
2019-05-19T06:40:23.885Z,0.70
2019-05-19T06:42:50.137Z,0.65
2019-05-19T06:45:16.584Z,0.80
2019-05-19T06:47:42.922Z,0.90
2019-05-19T06:50:09.359Z,0.70
2019-05-19T06:52:35.588Z,0.72
2019-05-19T06:55:01.931Z,0.85
2019-05-19T06:57:28.160Z,0.60
2019-05-19T06:59:54.400Z,0.70
2019-05-19T07:02:20.812Z,0.90
2019-05-19T07:04:47.398Z,0.80
2019-05-19T07:07:13.662Z,0.62
2019-05-19T07:09:39.902Z,0.80
2019-05-19T07:12:06.137Z,1.00
2019-05-19T07:14:32.380Z,0.95
2019-05-19T07:16:58.638Z,0.72
2019-05-19T07:19:24.866Z,0.90
2019-05-19T07:21:51.150Z,0.80
2019-05-19T07:24:17.434Z,0.98
2019-05-19T07:26:43.698Z,0.80
2019-05-19T07:29:09.933Z,1.17
2019-05-19T07:31:36.193Z,0.90
2019-05-19T07:34:02.436Z,1.00
2019-05-19T07:36:28.695Z,0.65
2019-05-19T07:38:54.924Z,0.80
2019-05-19T07:41:21.164Z,0.90
2019-05-19T07:43:47.404Z,0.80
2019-05-19T07:46:13.670Z,0.70
2019-05-19T07:48:39.919Z,0.90
2019-05-19T07:51:06.164Z,1.10
2019-05-19T07:53:42.534Z,0.70
2019-05-19T07:56:00.659Z,0.60
2019-05-19T07:58:26.886Z,0.80
2019-05-19T08:00:53.166Z,0.68
2019-05-19T08:03:19.401Z,0.65
2019-05-19T08:05:45.628Z,0.65
2019-05-19T08:08:11.880Z,0.70
2019-05-19T08:10:38.109Z,0.75
2019-05-19T08:13:04.521Z,0.60
2019-05-19T08:15:30.804Z,0.80
2019-05-19T08:17:57.048Z,0.57
2019-05-19T08:20:23.298Z,0.70
2019-05-19T08:22:51.374Z,0.65
2019-05-19T08:25:17.687Z,0.60
2019-05-19T08:27:43.932Z,0.80
2019-05-19T08:30:10.660Z,0.80
2019-05-19T08:32:36.896Z,0.72
2019-05-19T08:35:04.939Z,0.50
2019-05-19T08:37:31.206Z,1.12
2019-05-19T08:39:57.413Z,1.02
2019-05-19T08:42:23.695Z,0.75
2019-05-19T08:44:49.923Z,0.80
2019-05-19T08:47:16.163Z,0.80
2019-05-19T08:49:42.409Z,0.75
2019-05-19T08:52:08.704Z,0.70
2019-05-19T08:54:34.914Z,0.78
2019-05-19T08:57:01.154Z,0.50
2019-05-19T08:59:27.399Z,0.70
2019-05-19T09:01:53.630Z,0.60
2019-05-19T09:04:19.869Z,0.80
2019-05-19T09:06:46.102Z,0.75
2019-05-19T09:09:12.387Z,0.70
2019-05-19T09:11:38.688Z,0.53
2019-05-19T09:14:04.929Z,0.70
2019-05-19T09:16:31.176Z,0.75
2019-05-19T09:18:57.436Z,0.65
2019-05-19T09:21:23.693Z,0.55
2019-05-19T09:23:49.947Z,0.70
2019-05-19T09:26:16.173Z,0.70
2019-05-19T09:28:42.462Z,0.60
2019-05-19T09:31:08.692Z,0.68
2019-05-19T09:33:34.941Z,0.70
2019-05-19T09:36:01.166Z,0.80
2019-05-19T09:38:27.409Z,0.80
2019-05-19T09:40:53.654Z,0.90
2019-05-19T09:43:19.922Z,1.07
2019-05-19T09:45:46.140Z,0.85
2019-05-19T09:48:12.363Z,0.70
2019-05-19T09:50:38.605Z,0.82
2019-05-19T09:53:04.863Z,0.90
2019-05-19T09:55:31.089Z,0.70
2019-05-19T09:57:57.348Z,0.60
2019-05-19T10:00:23.695Z,0.80
2019-05-19T10:02:49.981Z,0.50
2019-05-19T10:05:16.228Z,0.60
2019-05-19T10:07:42.462Z,0.70
2019-05-19T10:10:15.335Z,0.70
2019-05-19T10:12:41.561Z,0.75
2019-05-19T10:15:09.505Z,0.72
2019-05-19T10:17:35.732Z,0.68
2019-05-19T10:20:03.421Z,0.68
2019-05-19T10:22:29.650Z,0.80
2019-05-19T10:25:10.843Z,0.60
2019-05-19T10:27:24.650Z,0.40
2019-05-19T10:29:50.877Z,0.50
2019-05-19T10:32:17.128Z,0.70
2019-05-19T10:34:43.363Z,0.72
2019-05-19T10:37:09.637Z,0.80
2019-05-19T10:39:35.977Z,0.62
2019-05-19T10:42:02.736Z,0.93
2019-05-19T10:44:29.330Z,0.70
2019-05-19T10:46:55.553Z,0.72
2019-05-19T10:49:21.825Z,0.78
2019-05-19T10:51:48.054Z,0.72
2019-05-19T10:54:14.409Z,0.80
2019-05-19T10:56:40.669Z,0.62
2019-05-19T10:59:06.896Z,0.53
2019-05-19T11:01:33.143Z,0.70
2019-05-19T11:03:59.376Z,0.65
2019-05-19T11:06:25.648Z,0.70
2019-05-19T11:08:51.881Z,0.57
2019-05-19T11:11:18.136Z,0.70
2019-05-19T11:13:44.365Z,0.60
2019-05-19T11:16:10.609Z,0.65
2019-05-19T11:18:36.875Z,0.60
2019-05-19T11:21:03.190Z,0.53
2019-05-19T11:23:29.524Z,0.80
2019-05-19T11:25:55.753Z,0.60
2019-05-19T11:28:22.008Z,0.70
2019-05-19T11:30:48.239Z,0.47
2019-05-19T11:33:14.476Z,0.60
2019-05-19T11:35:40.701Z,0.80
2019-05-19T11:38:06.944Z,0.60
2019-05-19T11:40:33.186Z,0.60
2019-05-19T11:42:59.428Z,0.60
2019-05-19T11:45:25.659Z,0.93
2019-05-19T11:47:51.912Z,0.90
2019-05-19T11:50:18.189Z,0.80
2019-05-19T11:52:44.529Z,0.70
2019-05-19T11:55:12.763Z,0.68
2019-05-19T11:57:39.021Z,0.50
2019-05-19T12:00:05.859Z,0.60
2019-05-19T12:02:32.124Z,0.80
2019-05-19T12:04:58.367Z,0.70
2019-05-19T12:07:24.606Z,0.68
2019-05-19T12:09:50.848Z,0.57
2019-05-19T12:12:17.093Z,0.80
2019-05-19T12:14:43.349Z,0.68
2019-05-19T12:17:09.645Z,0.55
2019-05-19T12:19:35.964Z,0.70
2019-05-19T12:22:02.194Z,0.50
2019-05-19T12:24:28.437Z,0.80
2019-05-19T12:26:54.684Z,0.50
2019-05-19T12:29:20.938Z,0.78
2019-05-19T12:31:47.170Z,0.70
2019-05-19T12:34:13.416Z,0.80
2019-05-19T12:36:39.647Z,0.70
2019-05-19T12:39:05.899Z,0.60
2019-05-19T12:41:32.144Z,0.50
2019-05-19T12:43:58.430Z,0.80
2019-05-19T12:46:24.642Z,0.72
2019-05-19T12:48:50.906Z,0.70
2019-05-19T12:51:17.154Z,0.60
2019-05-19T12:53:43.379Z,0.60
2019-05-19T12:56:09.635Z,0.60
2019-05-19T12:58:35.880Z,0.50
2019-05-19T13:01:02.122Z,0.60
2019-05-19T13:03:28.351Z,0.60
2019-05-19T13:05:54.608Z,0.60
2019-05-19T13:08:20.843Z,0.68
2019-05-19T13:10:47.085Z,0.75
2019-05-19T13:13:13.321Z,0.70
2019-05-19T13:15:39.571Z,0.55
2019-05-19T13:18:05.808Z,0.60
2019-05-19T13:20:32.463Z,0.60
2019-05-19T13:22:58.771Z,0.57
2019-05-19T13:25:25.075Z,0.75
2019-05-19T13:27:51.320Z,0.60
2019-05-19T13:30:17.902Z,0.60
2019-05-19T13:32:44.133Z,0.78
2019-05-19T13:35:10.481Z,0.50
2019-05-19T13:37:36.709Z,0.85
2019-05-19T13:40:04.448Z,0.70
2019-05-19T13:42:30.704Z,0.72
2019-05-19T13:44:56.942Z,0.40
2019-05-19T13:47:23.190Z,0.80
2019-05-19T13:49:49.442Z,0.70
2019-05-19T13:52:15.728Z,0.60
2019-05-19T13:54:42.037Z,0.40
2019-05-19T13:57:12.397Z,0.53
2019-05-19T13:59:36.432Z,0.75
2019-05-19T14:02:02.694Z,0.68
2019-05-19T14:04:28.943Z,0.62
2019-05-19T14:06:55.182Z,0.82
2019-05-19T14:09:21.455Z,0.60
2019-05-19T14:11:47.661Z,0.70
2019-05-19T14:14:13.904Z,0.70
2019-05-19T14:16:40.128Z,0.70
2019-05-19T14:19:06.365Z,0.78
2019-05-19T14:21:32.701Z,0.68
2019-05-19T14:23:58.905Z,0.60
2019-05-19T14:26:25.164Z,0.75
2019-05-19T14:28:51.396Z,0.70
2019-05-19T14:31:17.704Z,0.93
2019-05-19T14:33:43.988Z,0.78
2019-05-19T14:36:10.239Z,1.10
2019-05-19T14:38:38.293Z,0.80
2019-05-19T14:41:04.533Z,1.00
2019-05-19T14:43:33.571Z,0.70
2019-05-19T14:45:59.838Z,0.80
2019-05-19T14:48:27.876Z,0.72
2019-05-19T14:50:54.143Z,0.75
2019-05-19T14:53:20.389Z,0.70
2019-05-19T14:55:46.616Z,0.72
2019-05-19T14:58:12.863Z,0.70
2019-05-19T15:00:39.179Z,0.90
2019-05-19T15:03:05.406Z,0.77
2019-05-19T15:05:31.831Z,0.70
2019-05-19T15:07:58.108Z,0.80
2019-05-19T15:10:24.346Z,0.88
2019-05-19T15:12:50.587Z,1.25
2019-05-19T15:15:16.831Z,0.70
2019-05-19T15:17:43.070Z,1.40
2019-05-19T15:20:10.102Z,0.93
2019-05-19T15:22:36.398Z,0.80
2019-05-19T15:25:03.308Z,0.87
2019-05-19T15:27:29.569Z,0.95
2019-05-19T15:30:11.486Z,1.20
2019-05-19T15:32:23.950Z,0.80
2019-05-19T15:34:50.182Z,1.05
2019-05-19T15:37:16.418Z,0.80
2019-05-19T15:39:42.676Z,1.45
2019-05-19T15:42:08.929Z,1.30
2019-05-19T15:44:35.168Z,1.00
2019-05-19T15:47:01.415Z,0.90
2019-05-19T15:49:27.652Z,0.97
2019-05-19T15:52:01.551Z,1.10
2019-05-19T15:54:22.073Z,1.12
2019-05-19T15:56:48.272Z,1.50
2019-05-19T15:59:14.518Z,1.00
2019-05-19T16:01:40.775Z,0.98
2019-05-19T16:04:07.018Z,0.80
2019-05-19T16:06:33.257Z,0.90
2019-05-19T16:08:59.485Z,0.90
2019-05-19T16:11:25.712Z,0.75
2019-05-19T16:13:51.974Z,0.70
2019-05-19T16:16:18.230Z,0.90
2019-05-19T16:18:44.459Z,0.93
2019-05-19T16:21:10.716Z,0.97
2019-05-19T16:23:36.955Z,0.60
2019-05-19T16:26:03.184Z,0.80
2019-05-19T16:28:30.952Z,0.98
2019-05-19T16:30:57.467Z,0.70
2019-05-19T16:33:23.751Z,0.88
2019-05-19T16:35:49.999Z,0.97
2019-05-19T16:38:16.245Z,1.00
2019-05-19T16:40:42.471Z,0.80
2019-05-19T16:43:08.895Z,0.80
2019-05-19T16:45:35.140Z,0.60
2019-05-19T16:48:01.374Z,0.80
2019-05-19T16:50:27.616Z,0.70
2019-05-19T16:52:53.864Z,0.60
2019-05-19T16:55:27.946Z,1.00
2019-05-19T16:57:54.173Z,0.62
2019-05-19T17:00:21.624Z,0.73
2019-05-19T17:02:47.867Z,0.50
2019-05-19T17:05:14.245Z,0.70
2019-05-19T17:07:40.449Z,0.80
2019-05-19T17:10:07.687Z,0.70
2019-05-19T17:12:33.925Z,0.70
2019-05-19T17:15:00.171Z,0.77
2019-05-19T17:17:26.399Z,0.70
2019-05-19T17:19:52.685Z,0.80
2019-05-19T17:22:18.924Z,0.77
2019-05-19T17:24:45.158Z,0.80
2019-05-19T17:27:11.645Z,0.60
2019-05-19T17:29:38.044Z,0.60
2019-05-19T17:32:06.334Z,0.60
2019-05-19T17:34:32.413Z,0.63
2019-05-19T17:36:58.666Z,0.90
2019-05-19T17:39:24.905Z,0.80
2019-05-19T17:41:51.170Z,0.70
2019-05-19T17:44:17.409Z,0.80
2019-05-19T17:46:43.696Z,0.80
2019-05-19T17:49:09.986Z,0.63
2019-05-19T17:51:36.232Z,0.90
2019-05-19T17:54:02.572Z,1.00
2019-05-19T17:56:30.715Z,0.80
2019-05-19T17:58:57.353Z,0.80
2019-05-19T18:01:23.622Z,0.93
2019-05-19T18:03:50.043Z,0.93
2019-05-19T18:06:16.292Z,0.80
2019-05-19T18:08:42.525Z,0.87
2019-05-19T18:11:08.764Z,1.10
2019-05-19T18:13:35.021Z,0.80
2019-05-19T18:16:01.266Z,1.13
2019-05-19T18:18:27.511Z,1.00
2019-05-19T18:20:54.146Z,1.10
2019-05-19T18:23:20.403Z,1.00
2019-05-19T18:25:46.651Z,1.13
2019-05-19T18:28:12.891Z,0.90
2019-05-19T18:30:39.122Z,1.10
2019-05-19T18:33:05.373Z,0.80
2019-05-19T18:35:31.629Z,1.20
2019-05-19T18:37:57.896Z,1.00
2019-05-19T18:40:24.098Z,1.13
2019-05-19T18:42:50.351Z,0.83
2019-05-19T18:45:16.640Z,1.10
2019-05-19T18:47:42.877Z,1.10
2019-05-19T18:50:09.520Z,0.93
2019-05-19T18:52:35.752Z,1.17
2019-05-19T18:55:03.407Z,1.00
2019-05-19T18:57:29.654Z,1.03
2019-05-19T18:59:55.929Z,0.90
2019-05-19T19:02:22.290Z,1.30
2019-05-19T19:04:48.533Z,1.20
2019-05-19T19:07:14.783Z,0.80
2019-05-19T19:09:41.017Z,1.10
2019-05-19T19:12:07.274Z,1.00
2019-05-19T19:14:33.510Z,1.40
2019-05-19T19:16:59.758Z,1.00
2019-05-19T19:19:25.996Z,0.90
2019-05-19T19:21:52.243Z,1.10
2019-05-19T19:24:18.479Z,1.27
2019-05-19T19:26:44.732Z,1.00
2019-05-19T19:29:11.008Z,1.30
2019-05-19T19:31:48.210Z,1.20
2019-05-19T19:34:05.402Z,1.00
2019-05-19T19:36:31.653Z,1.00
2019-05-19T19:38:57.896Z,1.20
2019-05-19T19:41:24.154Z,1.07
2019-05-19T19:43:50.399Z,1.20
2019-05-19T19:46:16.641Z,1.33
2019-05-19T19:48:42.898Z,1.50
2019-05-19T19:51:09.120Z,1.17
2019-05-19T19:53:35.377Z,1.60
2019-05-19T19:56:01.663Z,1.30
2019-05-19T19:58:27.926Z,1.60
2019-05-19T20:00:54.151Z,1.57
2019-05-19T20:03:20.400Z,1.40
2019-05-19T20:05:46.641Z,1.60
2019-05-19T20:08:12.889Z,1.53
2019-05-19T20:10:39.722Z,1.53
2019-05-19T20:13:06.086Z,1.90
2019-05-19T20:15:32.414Z,1.70
2019-05-19T20:17:58.686Z,1.23
2019-05-19T20:20:24.927Z,2.00
2019-05-19T20:22:51.204Z,1.77
2019-05-19T20:25:17.457Z,1.37
2019-05-19T20:27:43.717Z,2.03
2019-05-19T20:30:09.955Z,1.47
2019-05-19T20:32:36.202Z,1.90
2019-05-19T20:35:03.040Z,1.30
2019-05-19T20:37:29.276Z,1.40
2019-05-19T20:39:55.538Z,1.40
2019-05-19T20:42:21.774Z,1.70
2019-05-19T20:44:48.030Z,1.67
2019-05-19T20:47:14.259Z,1.60
2019-05-19T20:49:40.509Z,1.30
2019-05-19T20:52:06.748Z,1.50
2019-05-19T20:54:33.013Z,1.60
2019-05-19T20:56:59.299Z,1.30
2019-05-19T20:59:25.547Z,1.40
2019-05-19T21:01:51.785Z,1.20
2019-05-19T21:04:18.086Z,1.60
2019-05-19T21:06:44.378Z,1.60
2019-05-19T21:09:10.620Z,1.30
2019-05-19T21:11:36.856Z,2.00
2019-05-19T21:14:03.127Z,1.40
2019-05-19T21:16:29.368Z,1.53
2019-05-19T21:18:55.650Z,1.50
2019-05-19T21:21:21.881Z,1.23
2019-05-19T21:23:48.527Z,1.90
2019-05-19T21:26:14.801Z,1.70
2019-05-19T21:28:41.043Z,1.33
2019-05-19T21:31:07.274Z,1.30
2019-05-19T21:33:33.530Z,1.60
2019-05-19T21:35:59.775Z,1.50
2019-05-19T21:38:26.025Z,1.57
2019-05-19T21:40:52.276Z,1.43
2019-05-19T21:43:18.549Z,1.77
2019-05-19T21:45:44.795Z,1.47
2019-05-19T21:48:11.041Z,1.40
2019-05-19T21:50:37.307Z,1.40
2019-05-19T21:53:06.395Z,1.57
2019-05-19T21:55:31.708Z,1.50
2019-05-19T21:57:57.960Z,1.43
2019-05-19T22:00:26.107Z,1.40
2019-05-19T22:02:52.328Z,1.30
2019-05-19T22:05:18.570Z,1.93
2019-05-19T22:08:04.664Z,1.70
2019-05-19T22:10:30.913Z,1.47
2019-05-19T22:12:57.033Z,1.63
2019-05-19T22:15:23.279Z,1.47
2019-05-19T22:17:49.497Z,2.10
2019-05-19T22:20:15.730Z,1.40
2019-05-19T22:22:41.869Z,1.60
2019-05-19T22:25:08.208Z,1.40
2019-05-19T22:27:34.446Z,1.80
2019-05-19T22:30:00.582Z,1.60
2019-05-19T22:32:26.821Z,1.53
2019-05-19T22:34:53.043Z,1.83
2019-05-19T22:37:19.292Z,1.90
2019-05-19T22:39:45.436Z,1.80
2019-05-19T22:42:11.582Z,1.90
2019-05-19T22:44:37.802Z,1.80
2019-05-19T22:47:04.045Z,1.87
2019-05-19T22:49:30.286Z,1.77
2019-05-19T22:51:56.516Z,1.50
2019-05-19T22:54:22.742Z,1.50
2019-05-19T22:56:49.000Z,1.53
2019-05-19T22:59:19.750Z,1.53
2019-05-19T23:01:51.478Z,1.80
2019-05-19T23:04:11.343Z,1.90
2019-05-19T23:06:37.659Z,1.60
2019-05-19T23:09:05.092Z,1.90
2019-05-19T23:11:31.313Z,1.70
2019-05-19T23:13:57.454Z,1.80
2019-05-19T23:16:23.701Z,1.73
2019-05-19T23:18:49.841Z,1.57
2019-05-19T23:21:15.964Z,1.80
2019-05-19T23:23:42.218Z,1.80
2019-05-19T23:26:08.352Z,1.70
2019-05-19T23:28:34.587Z,1.77
2019-05-19T23:31:00.820Z,1.37
2019-05-19T23:33:27.062Z,1.57
2019-05-19T23:35:53.299Z,1.63
2019-05-19T23:38:19.540Z,1.63
2019-05-19T23:40:45.772Z,1.87
2019-05-19T23:43:12.012Z,1.40
2019-05-19T23:45:38.259Z,1.60
2019-05-19T23:48:04.807Z,1.80
2019-05-19T23:50:31.051Z,1.60
2019-05-19T23:52:57.292Z,1.47
2019-05-19T23:55:23.517Z,1.57
2019-05-19T23:57:49.783Z,1.80
